Terminal Aerodrome Forecast
Issued by NWS

Home | Current Version | Previous Version | Graphics & Text | Print | Product List | Glossary On
Versions: 1 2 3 4 5 6 7 8 9 10 11 12 13
247
FTUS42 KMHX 220600 CCA
TAFOAJ
TAF COR
KOAJ 220600Z 2206/2306 00000KT P6SM SKC
      TEMPO 2206/2209 2SM BR
     FM220900 00000KT 2SM BR SCT007
     FM221300 00000KT P6SM SKC
      AMD LTD TO CLD VIS AND WIND=

USA.gov is the U.S. government's official web portal to all federal, state and local government web resources and services.